sensor_id;sensor_type;location;lat;lon;timestamp;P1;durP1;ratioP1;P2;durP2;ratioP2
11034;SDS011;5571;48.110;-1.706;2022-08-18T00:01:37;42.45;;;31.17;;
11034;SDS011;5571;48.110;-1.706;2022-08-18T00:04:05;38.20;;;29.73;;
11034;SDS011;5571;48.110;-1.706;2022-08-18T00:06:31;41.50;;;31.63;;
11034;SDS011;5571;48.110;-1.706;2022-08-18T00:08:57;41.28;;;30.65;;
11034;SDS011;5571;48.110;-1.706;2022-08-18T00:11:24;44.08;;;29.83;;
11034;SDS011;5571;48.110;-1.706;2022-08-18T00:13:50;41.08;;;31.80;;
11034;SDS011;5571;48.110;-1.706;2022-08-18T00:16:15;41.35;;;32.33;;
11034;SDS011;5571;48.110;-1.706;2022-08-18T00:18:40;44.05;;;32.50;;
11034;SDS011;5571;48.110;-1.706;2022-08-18T00:21:06;43.28;;;32.13;;
11034;SDS011;5571;48.110;-1.706;2022-08-18T00:23:31;37.53;;;31.90;;
11034;SDS011;5571;48.110;-1.706;2022-08-18T00:25:57;41.50;;;32.33;;
11034;SDS011;5571;48.110;-1.706;2022-08-18T00:28:24;47.67;;;33.10;;
11034;SDS011;5571;48.110;-1.706;2022-08-18T00:30:49;40.75;;;32.83;;
11034;SDS011;5571;48.110;-1.706;2022-08-18T00:33:15;41.97;;;31.83;;
11034;SDS011;5571;48.110;-1.706;2022-08-18T00:35:40;43.75;;;33.40;;
11034;SDS011;5571;48.110;-1.706;2022-08-18T00:38:06;41.65;;;32.15;;
11034;SDS011;5571;48.110;-1.706;2022-08-18T00:40:40;48.15;;;34.53;;
11034;SDS011;5571;48.110;-1.706;2022-08-18T00:43:12;47.17;;;33.70;;
11034;SDS011;5571;48.110;-1.706;2022-08-18T00:45:45;46.97;;;35.55;;
11034;SDS011;5571;48.110;-1.706;2022-08-18T00:48:11;44.78;;;34.35;;
11034;SDS011;5571;48.110;-1.706;2022-08-18T00:53:40;47.75;;;35.83;;
11034;SDS011;5571;48.110;-1.706;2022-08-18T00:56:13;48.53;;;36.35;;
11034;SDS011;5571;48.110;-1.706;2022-08-18T00:58:43;48.03;;;37.45;;
11034;SDS011;5571;48.110;-1.706;2022-08-18T01:01:13;56.45;;;36.17;;
11034;SDS011;5571;48.110;-1.706;2022-08-18T01:03:40;49.38;;;36.55;;
11034;SDS011;5571;48.110;-1.706;2022-08-18T01:06:14;45.80;;;35.20;;
11034;SDS011;5571;48.110;-1.706;2022-08-18T01:08:59;50.25;;;35.42;;
11034;SDS011;5571;48.110;-1.706;2022-08-18T01:11:25;48.10;;;35.88;;
11034;SDS011;5571;48.110;-1.706;2022-08-18T01:13:51;50.65;;;37.17;;
11034;SDS011;5571;48.110;-1.706;2022-08-18T01:16:17;48.40;;;36.58;;
11034;SDS011;5571;48.110;-1.706;2022-08-18T01:19:03;48.58;;;36.92;;
11034;SDS011;5571;48.110;-1.706;2022-08-18T01:21:50;49.28;;;36.58;;
11034;SDS011;5571;48.110;-1.706;2022-08-18T01:24:20;47.75;;;37.30;;
11034;SDS011;5571;48.110;-1.706;2022-08-18T01:27:10;44.33;;;34.83;;
11034;SDS011;5571;48.110;-1.706;2022-08-18T01:29:41;48.45;;;35.72;;
11034;SDS011;5571;48.110;-1.706;2022-08-18T01:32:08;47.33;;;34.67;;
11034;SDS011;5571;48.110;-1.706;2022-08-18T01:34:33;49.70;;;34.75;;
11034;SDS011;5571;48.110;-1.706;2022-08-18T01:36:58;46.13;;;36.70;;
11034;SDS011;5571;48.110;-1.706;2022-08-18T01:39:24;48.20;;;35.80;;
11034;SDS011;5571;48.110;-1.706;2022-08-18T01:41:50;47.40;;;37.60;;
11034;SDS011;5571;48.110;-1.706;2022-08-18T01:44:15;47.78;;;37.70;;
11034;SDS011;5571;48.110;-1.706;2022-08-18T01:46:40;51.17;;;37.00;;
11034;SDS011;5571;48.110;-1.706;2022-08-18T01:49:06;52.97;;;38.47;;
11034;SDS011;5571;48.110;-1.706;2022-08-18T01:51:34;49.90;;;37.38;;
11034;SDS011;5571;48.110;-1.706;2022-08-18T01:54:05;47.90;;;37.13;;
11034;SDS011;5571;48.110;-1.706;2022-08-18T01:56:30;46.60;;;36.28;;
11034;SDS011;5571;48.110;-1.706;2022-08-18T01:58:56;50.45;;;36.65;;
11034;SDS011;5571;48.110;-1.706;2022-08-18T02:01:21;45.33;;;35.15;;
11034;SDS011;5571;48.110;-1.706;2022-08-18T02:03:54;46.03;;;35.17;;
11034;SDS011;5571;48.110;-1.706;2022-08-18T02:06:23;46.85;;;35.42;;
11034;SDS011;5571;48.110;-1.706;2022-08-18T02:08:49;44.65;;;34.65;;
11034;SDS011;5571;48.110;-1.706;2022-08-18T02:11:14;43.17;;;34.45;;
11034;SDS011;5571;48.110;-1.706;2022-08-18T02:13:40;42.42;;;33.47;;
11034;SDS011;5571;48.110;-1.706;2022-08-18T02:16:06;40.00;;;32.83;;
11034;SDS011;5571;48.110;-1.706;2022-08-18T02:18:33;41.40;;;34.08;;
11034;SDS011;5571;48.110;-1.706;2022-08-18T02:21:11;42.97;;;32.78;;
11034;SDS011;5571;48.110;-1.706;2022-08-18T02:23:39;38.58;;;31.15;;
11034;SDS011;5571;48.110;-1.706;2022-08-18T02:26:06;41.22;;;32.08;;
11034;SDS011;5571;48.110;-1.706;2022-08-18T02:28:34;42.47;;;32.50;;
11034;SDS011;5571;48.110;-1.706;2022-08-18T02:31:07;41.00;;;32.63;;
11034;SDS011;5571;48.110;-1.706;2022-08-18T02:33:34;39.97;;;31.70;;
11034;SDS011;5571;48.110;-1.706;2022-08-18T02:36:00;38.78;;;32.85;;
11034;SDS011;5571;48.110;-1.706;2022-08-18T02:38:26;49.38;;;34.05;;
11034;SDS011;5571;48.110;-1.706;2022-08-18T02:40:56;50.20;;;34.20;;
11034;SDS011;5571;48.110;-1.706;2022-08-18T02:43:22;42.33;;;32.75;;
11034;SDS011;5571;48.110;-1.706;2022-08-18T02:45:48;47.85;;;37.38;;
11034;SDS011;5571;48.110;-1.706;2022-08-18T02:48:14;48.55;;;37.25;;
11034;SDS011;5571;48.110;-1.706;2022-08-18T02:50:39;50.30;;;37.50;;
11034;SDS011;5571;48.110;-1.706;2022-08-18T02:53:11;47.20;;;35.63;;
11034;SDS011;5571;48.110;-1.706;2022-08-18T02:55:46;45.95;;;36.30;;
11034;SDS011;5571;48.110;-1.706;2022-08-18T02:58:12;46.28;;;37.35;;
11034;SDS011;5571;48.110;-1.706;2022-08-18T03:00:38;50.95;;;39.25;;
11034;SDS011;5571;48.110;-1.706;2022-08-18T03:03:03;45.83;;;36.47;;
11034;SDS011;5571;48.110;-1.706;2022-08-18T03:05:29;48.58;;;37.20;;
11034;SDS011;5571;48.110;-1.706;2022-08-18T03:07:54;51.17;;;38.65;;
11034;SDS011;5571;48.110;-1.706;2022-08-18T03:10:20;51.72;;;39.30;;
11034;SDS011;5571;48.110;-1.706;2022-08-18T03:12:45;50.58;;;38.80;;
11034;SDS011;5571;48.110;-1.706;2022-08-18T03:15:11;50.95;;;37.65;;
11034;SDS011;5571;48.110;-1.706;2022-08-18T03:17:37;48.50;;;38.00;;
11034;SDS011;5571;48.110;-1.706;2022-08-18T03:20:03;48.47;;;37.25;;
11034;SDS011;5571;48.110;-1.706;2022-08-18T03:22:28;50.90;;;38.22;;
11034;SDS011;5571;48.110;-1.706;2022-08-18T03:24:54;46.58;;;36.90;;
11034;SDS011;5571;48.110;-1.706;2022-08-18T03:27:19;51.40;;;37.97;;
11034;SDS011;5571;48.110;-1.706;2022-08-18T03:29:45;49.53;;;36.22;;
11034;SDS011;5571;48.110;-1.706;2022-08-18T03:32:10;46.40;;;37.33;;
11034;SDS011;5571;48.110;-1.706;2022-08-18T03:34:35;48.65;;;36.42;;
11034;SDS011;5571;48.110;-1.706;2022-08-18T03:37:01;53.00;;;36.00;;
11034;SDS011;5571;48.110;-1.706;2022-08-18T03:39:27;47.70;;;36.97;;
11034;SDS011;5571;48.110;-1.706;2022-08-18T03:41:52;43.03;;;36.47;;
11034;SDS011;5571;48.110;-1.706;2022-08-18T03:44:19;42.75;;;35.97;;
11034;SDS011;5571;48.110;-1.706;2022-08-18T03:46:46;47.38;;;36.63;;
11034;SDS011;5571;48.110;-1.706;2022-08-18T03:49:12;45.70;;;35.53;;
11034;SDS011;5571;48.110;-1.706;2022-08-18T03:51:39;52.47;;;36.58;;
11034;SDS011;5571;48.110;-1.706;2022-08-18T03:54:14;45.28;;;36.10;;
11034;SDS011;5571;48.110;-1.706;2022-08-18T03:56:41;46.22;;;35.22;;
11034;SDS011;5571;48.110;-1.706;2022-08-18T03:59:13;43.60;;;34.90;;
11034;SDS011;5571;48.110;-1.706;2022-08-18T04:01:44;44.65;;;35.55;;
11034;SDS011;5571;48.110;-1.706;2022-08-18T04:04:11;39.95;;;34.90;;
11034;SDS011;5571;48.110;-1.706;2022-08-18T04:06:40;47.22;;;35.72;;
11034;SDS011;5571;48.110;-1.706;2022-08-18T04:09:14;49.85;;;36.38;;
11034;SDS011;5571;48.110;-1.706;2022-08-18T04:11:40;46.88;;;35.95;;
11034;SDS011;5571;48.110;-1.706;2022-08-18T04:14:07;46.10;;;35.97;;
11034;SDS011;5571;48.110;-1.706;2022-08-18T04:16:34;47.85;;;37.22;;
11034;SDS011;5571;48.110;-1.706;2022-08-18T04:19:02;48.53;;;37.65;;
11034;SDS011;5571;48.110;-1.706;2022-08-18T04:21:29;49.97;;;36.47;;
11034;SDS011;5571;48.110;-1.706;2022-08-18T04:23:56;50.00;;;38.92;;
11034;SDS011;5571;48.110;-1.706;2022-08-18T04:26:28;46.03;;;36.40;;
11034;SDS011;5571;48.110;-1.706;2022-08-18T04:28:53;47.42;;;36.75;;
11034;SDS011;5571;48.110;-1.706;2022-08-18T04:31:19;48.42;;;37.00;;
11034;SDS011;5571;48.110;-1.706;2022-08-18T04:33:48;52.55;;;38.00;;
11034;SDS011;5571;48.110;-1.706;2022-08-18T04:36:14;45.92;;;37.28;;
11034;SDS011;5571;48.110;-1.706;2022-08-18T04:38:41;47.88;;;36.78;;
11034;SDS011;5571;48.110;-1.706;2022-08-18T04:41:08;47.85;;;36.47;;
11034;SDS011;5571;48.110;-1.706;2022-08-18T04:43:36;47.17;;;36.40;;
11034;SDS011;5571;48.110;-1.706;2022-08-18T04:46:01;49.33;;;36.25;;
11034;SDS011;5571;48.110;-1.706;2022-08-18T04:48:30;48.13;;;36.47;;
11034;SDS011;5571;48.110;-1.706;2022-08-18T04:51:07;45.80;;;37.00;;
11034;SDS011;5571;48.110;-1.706;2022-08-18T04:53:35;42.50;;;33.78;;
11034;SDS011;5571;48.110;-1.706;2022-08-18T04:59:01;44.72;;;34.58;;
11034;SDS011;5571;48.110;-1.706;2022-08-18T05:01:32;40.63;;;33.33;;
11034;SDS011;5571;48.110;-1.706;2022-08-18T05:04:00;41.67;;;33.22;;
11034;SDS011;5571;48.110;-1.706;2022-08-18T05:06:26;41.97;;;32.65;;
11034;SDS011;5571;48.110;-1.706;2022-08-18T05:08:53;39.65;;;31.73;;
11034;SDS011;5571;48.110;-1.706;2022-08-18T05:11:21;43.75;;;33.33;;
11034;SDS011;5571;48.110;-1.706;2022-08-18T05:13:48;45.85;;;33.20;;
11034;SDS011;5571;48.110;-1.706;2022-08-18T05:16:14;42.47;;;33.55;;
11034;SDS011;5571;48.110;-1.706;2022-08-18T05:18:39;39.75;;;31.65;;
11034;SDS011;5571;48.110;-1.706;2022-08-18T05:21:06;39.35;;;32.53;;
11034;SDS011;5571;48.110;-1.706;2022-08-18T05:23:33;38.33;;;32.47;;
11034;SDS011;5571;48.110;-1.706;2022-08-18T05:26:00;41.40;;;32.92;;
11034;SDS011;5571;48.110;-1.706;2022-08-18T05:28:30;39.10;;;31.98;;
11034;SDS011;5571;48.110;-1.706;2022-08-18T05:30:56;38.40;;;31.05;;
11034;SDS011;5571;48.110;-1.706;2022-08-18T05:33:22;45.05;;;32.47;;
11034;SDS011;5571;48.110;-1.706;2022-08-18T05:35:54;39.58;;;32.75;;
11034;SDS011;5571;48.110;-1.706;2022-08-18T05:41:14;38.72;;;32.40;;
11034;SDS011;5571;48.110;-1.706;2022-08-18T05:43:46;40.30;;;32.65;;
11034;SDS011;5571;48.110;-1.706;2022-08-18T05:46:12;38.28;;;32.42;;
11034;SDS011;5571;48.110;-1.706;2022-08-18T05:48:38;40.65;;;32.70;;
11034;SDS011;5571;48.110;-1.706;2022-08-18T05:51:32;44.17;;;33.67;;
11034;SDS011;5571;48.110;-1.706;2022-08-18T05:53:58;40.58;;;34.03;;
11034;SDS011;5571;48.110;-1.706;2022-08-18T05:56:45;44.20;;;34.60;;
11034;SDS011;5571;48.110;-1.706;2022-08-18T05:59:15;44.75;;;33.58;;
11034;SDS011;5571;48.110;-1.706;2022-08-18T06:01:48;45.88;;;35.17;;
11034;SDS011;5571;48.110;-1.706;2022-08-18T06:04:25;38.53;;;33.85;;
11034;SDS011;5571;48.110;-1.706;2022-08-18T06:07:00;46.58;;;36.03;;
11034;SDS011;5571;48.110;-1.706;2022-08-18T06:09:31;44.45;;;35.85;;
11034;SDS011;5571;48.110;-1.706;2022-08-18T06:12:46;42.85;;;35.30;;
11034;SDS011;5571;48.110;-1.706;2022-08-18T06:39:48;35.05;;;30.50;;
11034;SDS011;5571;48.110;-1.706;2022-08-18T06:42:17;37.13;;;31.00;;
11034;SDS011;5571;48.110;-1.706;2022-08-18T06:44:46;40.22;;;29.65;;
11034;SDS011;5571;48.110;-1.706;2022-08-18T06:50:02;39.33;;;29.67;;
11034;SDS011;5571;48.110;-1.706;2022-08-18T06:52:33;40.53;;;30.42;;
11034;SDS011;5571;48.110;-1.706;2022-08-18T06:55:10;35.83;;;28.83;;
11034;SDS011;5571;48.110;-1.706;2022-08-18T06:57:53;31.05;;;26.05;;
11034;SDS011;5571;48.110;-1.706;2022-08-18T07:00:24;33.58;;;25.85;;
11034;SDS011;5571;48.110;-1.706;2022-08-18T07:05:27;29.58;;;26.00;;
11034;SDS011;5571;48.110;-1.706;2022-08-18T07:08:16;29.58;;;24.50;;
11034;SDS011;5571;48.110;-1.706;2022-08-18T07:10:46;33.83;;;25.00;;
11034;SDS011;5571;48.110;-1.706;2022-08-18T07:15:50;30.83;;;24.05;;
11034;SDS011;5571;48.110;-1.706;2022-08-18T07:18:22;29.98;;;24.42;;
11034;SDS011;5571;48.110;-1.706;2022-08-18T07:20:56;28.08;;;24.23;;
11034;SDS011;5571;48.110;-1.706;2022-08-18T07:26:13;30.13;;;24.33;;
11034;SDS011;5571;48.110;-1.706;2022-08-18T07:28:41;26.83;;;23.70;;
11034;SDS011;5571;48.110;-1.706;2022-08-18T07:33:46;26.17;;;23.33;;
11034;SDS011;5571;48.110;-1.706;2022-08-18T07:36:17;29.50;;;23.17;;
11034;SDS011;5571;48.110;-1.706;2022-08-18T07:38:47;27.95;;;23.15;;
11034;SDS011;5571;48.110;-1.706;2022-08-18T07:41:21;26.25;;;22.13;;
11034;SDS011;5571;48.110;-1.706;2022-08-18T07:46:49;27.65;;;22.30;;
11034;SDS011;5571;48.110;-1.706;2022-08-18T07:49:21;25.05;;;21.13;;
11034;SDS011;5571;48.110;-1.706;2022-08-18T07:51:56;26.55;;;22.42;;
11034;SDS011;5571;48.110;-1.706;2022-08-18T07:54:37;27.73;;;22.10;;
11034;SDS011;5571;48.110;-1.706;2022-08-18T07:57:16;26.85;;;21.95;;
11034;SDS011;5571;48.110;-1.706;2022-08-18T08:03:17;25.95;;;21.08;;
11034;SDS011;5571;48.110;-1.706;2022-08-18T08:14:19;21.33;;;19.05;;
11034;SDS011;5571;48.110;-1.706;2022-08-18T08:22:45;23.90;;;19.92;;
11034;SDS011;5571;48.110;-1.706;2022-08-18T08:33:34;25.45;;;20.17;;
11034;SDS011;5571;48.110;-1.706;2022-08-18T08:36:07;21.38;;;19.15;;
11034;SDS011;5571;48.110;-1.706;2022-08-18T08:41:12;22.60;;;19.30;;
11034;SDS011;5571;48.110;-1.706;2022-08-18T08:43:44;19.27;;;17.25;;
11034;SDS011;5571;48.110;-1.706;2022-08-18T08:51:59;17.95;;;15.88;;
11034;SDS011;5571;48.110;-1.706;2022-08-18T08:54:40;21.52;;;15.57;;
11034;SDS011;5571;48.110;-1.706;2022-08-18T08:57:10;18.08;;;15.40;;
11034;SDS011;5571;48.110;-1.706;2022-08-18T08:59:38;17.77;;;15.85;;
11034;SDS011;5571;48.110;-1.706;2022-08-18T09:04:49;15.98;;;13.70;;
11034;SDS011;5571;48.110;-1.706;2022-08-18T09:23:43;9.35;;;8.45;;
11034;SDS011;5571;48.110;-1.706;2022-08-18T09:31:20;10.27;;;8.30;;
11034;SDS011;5571;48.110;-1.706;2022-08-18T09:34:11;9.13;;;8.20;;
11034;SDS011;5571;48.110;-1.706;2022-08-18T09:37:03;10.02;;;8.60;;
11034;SDS011;5571;48.110;-1.706;2022-08-18T09:39:41;9.95;;;7.65;;
11034;SDS011;5571;48.110;-1.706;2022-08-18T09:45:05;10.10;;;8.35;;
11034;SDS011;5571;48.110;-1.706;2022-08-18T09:52:54;8.30;;;7.50;;
11034;SDS011;5571;48.110;-1.706;2022-08-18T09:57:48;9.73;;;7.75;;
11034;SDS011;5571;48.110;-1.706;2022-08-18T10:00:42;12.13;;;6.88;;
11034;SDS011;5571;48.110;-1.706;2022-08-18T10:03:17;10.20;;;8.98;;
11034;SDS011;5571;48.110;-1.706;2022-08-18T10:05:55;11.63;;;8.93;;
11034;SDS011;5571;48.110;-1.706;2022-08-18T10:14:28;10.77;;;8.90;;
11034;SDS011;5571;48.110;-1.706;2022-08-18T10:22:56;11.82;;;9.38;;
11034;SDS011;5571;48.110;-1.706;2022-08-18T10:25:33;9.95;;;8.88;;
11034;SDS011;5571;48.110;-1.706;2022-08-18T10:28:05;9.77;;;8.10;;
11034;SDS011;5571;48.110;-1.706;2022-08-18T10:33:04;8.90;;;7.95;;
11034;SDS011;5571;48.110;-1.706;2022-08-18T10:41:03;10.27;;;7.03;;
11034;SDS011;5571;48.110;-1.706;2022-08-18T10:46:01;8.50;;;6.18;;
11034;SDS011;5571;48.110;-1.706;2022-08-18T10:48:28;6.53;;;5.35;;
11034;SDS011;5571;48.110;-1.706;2022-08-18T10:51:05;6.55;;;4.72;;
11034;SDS011;5571;48.110;-1.706;2022-08-18T10:53:54;5.00;;;4.40;;
11034;SDS011;5571;48.110;-1.706;2022-08-18T10:59:38;6.57;;;5.00;;
11034;SDS011;5571;48.110;-1.706;2022-08-18T11:04:53;10.30;;;5.50;;
11034;SDS011;5571;48.110;-1.706;2022-08-18T11:07:26;9.30;;;5.50;;
11034;SDS011;5571;48.110;-1.706;2022-08-18T11:09:54;9.93;;;6.38;;
11034;SDS011;5571;48.110;-1.706;2022-08-18T11:12:55;6.72;;;5.25;;
11034;SDS011;5571;48.110;-1.706;2022-08-18T11:24:11;7.55;;;5.47;;
11034;SDS011;5571;48.110;-1.706;2022-08-18T11:26:39;12.18;;;5.35;;
11034;SDS011;5571;48.110;-1.706;2022-08-18T11:32:40;5.78;;;5.18;;
11034;SDS011;5571;48.110;-1.706;2022-08-18T12:01:05;7.00;;;4.30;;
11034;SDS011;5571;48.110;-1.706;2022-08-18T12:03:41;9.68;;;4.93;;
11034;SDS011;5571;48.110;-1.706;2022-08-18T12:06:16;7.65;;;3.90;;
11034;SDS011;5571;48.110;-1.706;2022-08-18T12:08:49;5.50;;;3.92;;
11034;SDS011;5571;48.110;-1.706;2022-08-18T12:11:19;7.10;;;4.00;;
11034;SDS011;5571;48.110;-1.706;2022-08-18T12:13:48;4.25;;;3.75;;
11034;SDS011;5571;48.110;-1.706;2022-08-18T12:16:31;7.15;;;4.28;;
11034;SDS011;5571;48.110;-1.706;2022-08-18T12:19:08;8.43;;;4.00;;
11034;SDS011;5571;48.110;-1.706;2022-08-18T12:21:40;5.72;;;3.65;;
11034;SDS011;5571;48.110;-1.706;2022-08-18T12:24:12;7.85;;;3.95;;
11034;SDS011;5571;48.110;-1.706;2022-08-18T12:26:49;5.95;;;3.72;;
11034;SDS011;5571;48.110;-1.706;2022-08-18T12:29:16;10.05;;;3.70;;
11034;SDS011;5571;48.110;-1.706;2022-08-18T12:31:42;5.53;;;3.72;;
11034;SDS011;5571;48.110;-1.706;2022-08-18T12:34:08;6.28;;;3.70;;
11034;SDS011;5571;48.110;-1.706;2022-08-18T12:36:34;6.18;;;4.00;;
11034;SDS011;5571;48.110;-1.706;2022-08-18T12:38:59;6.03;;;4.10;;
11034;SDS011;5571;48.110;-1.706;2022-08-18T12:41:25;8.50;;;3.97;;
11034;SDS011;5571;48.110;-1.706;2022-08-18T12:43:50;6.70;;;3.67;;
11034;SDS011;5571;48.110;-1.706;2022-08-18T12:46:19;6.18;;;3.63;;
11034;SDS011;5571;48.110;-1.706;2022-08-18T12:48:45;10.60;;;3.47;;
11034;SDS011;5571;48.110;-1.706;2022-08-18T12:51:11;3.72;;;3.30;;
11034;SDS011;5571;48.110;-1.706;2022-08-18T12:53:37;5.45;;;3.47;;
11034;SDS011;5571;48.110;-1.706;2022-08-18T12:56:19;5.03;;;3.40;;
11034;SDS011;5571;48.110;-1.706;2022-08-18T12:58:50;5.10;;;3.20;;
11034;SDS011;5571;48.110;-1.706;2022-08-18T13:01:17;5.28;;;3.22;;
11034;SDS011;5571;48.110;-1.706;2022-08-18T13:03:44;5.53;;;3.50;;
11034;SDS011;5571;48.110;-1.706;2022-08-18T13:06:11;7.43;;;3.03;;
11034;SDS011;5571;48.110;-1.706;2022-08-18T13:08:37;4.45;;;2.90;;
11034;SDS011;5571;48.110;-1.706;2022-08-18T13:11:03;4.82;;;3.00;;
11034;SDS011;5571;48.110;-1.706;2022-08-18T13:13:34;6.35;;;3.47;;
11034;SDS011;5571;48.110;-1.706;2022-08-18T13:16:00;4.45;;;3.40;;
11034;SDS011;5571;48.110;-1.706;2022-08-18T13:18:26;7.15;;;3.63;;
11034;SDS011;5571;48.110;-1.706;2022-08-18T13:20:51;6.63;;;3.47;;
11034;SDS011;5571;48.110;-1.706;2022-08-18T13:23:17;4.65;;;3.63;;
11034;SDS011;5571;48.110;-1.706;2022-08-18T13:25:43;6.13;;;3.72;;
11034;SDS011;5571;48.110;-1.706;2022-08-18T13:28:08;7.35;;;3.90;;
11034;SDS011;5571;48.110;-1.706;2022-08-18T13:30:33;4.63;;;4.10;;
11034;SDS011;5571;48.110;-1.706;2022-08-18T13:32:59;6.15;;;3.80;;
11034;SDS011;5571;48.110;-1.706;2022-08-18T13:35:26;6.05;;;3.53;;
11034;SDS011;5571;48.110;-1.706;2022-08-18T13:37:52;5.18;;;3.75;;
11034;SDS011;5571;48.110;-1.706;2022-08-18T13:40:19;6.18;;;4.20;;
11034;SDS011;5571;48.110;-1.706;2022-08-18T13:42:46;6.75;;;3.72;;
11034;SDS011;5571;48.110;-1.706;2022-08-18T13:45:16;5.05;;;3.80;;
11034;SDS011;5571;48.110;-1.706;2022-08-18T13:47:45;5.75;;;3.60;;
11034;SDS011;5571;48.110;-1.706;2022-08-18T13:50:11;7.57;;;4.28;;
11034;SDS011;5571;48.110;-1.706;2022-08-18T13:52:38;5.32;;;3.60;;
11034;SDS011;5571;48.110;-1.706;2022-08-18T13:55:05;9.00;;;4.43;;
11034;SDS011;5571;48.110;-1.706;2022-08-18T13:57:33;5.18;;;3.80;;
11034;SDS011;5571;48.110;-1.706;2022-08-18T13:59:59;8.55;;;3.92;;
11034;SDS011;5571;48.110;-1.706;2022-08-18T14:02:25;6.32;;;3.40;;
11034;SDS011;5571;48.110;-1.706;2022-08-18T14:04:50;8.80;;;3.67;;
11034;SDS011;5571;48.110;-1.706;2022-08-18T14:07:19;6.82;;;3.60;;
11034;SDS011;5571;48.110;-1.706;2022-08-18T14:09:45;6.47;;;3.50;;
11034;SDS011;5571;48.110;-1.706;2022-08-18T14:12:21;5.97;;;3.42;;
11034;SDS011;5571;48.110;-1.706;2022-08-18T14:14:48;5.07;;;3.50;;
11034;SDS011;5571;48.110;-1.706;2022-08-18T14:17:14;4.70;;;3.25;;
11034;SDS011;5571;48.110;-1.706;2022-08-18T14:19:39;3.30;;;3.00;;
11034;SDS011;5571;48.110;-1.706;2022-08-18T14:22:23;6.10;;;3.13;;
11034;SDS011;5571;48.110;-1.706;2022-08-18T14:25:07;5.18;;;3.63;;
11034;SDS011;5571;48.110;-1.706;2022-08-18T14:27:51;3.78;;;3.08;;
11034;SDS011;5571;48.110;-1.706;2022-08-18T14:30:17;5.10;;;3.92;;
11034;SDS011;5571;48.110;-1.706;2022-08-18T14:32:43;6.47;;;3.60;;
11034;SDS011;5571;48.110;-1.706;2022-08-18T14:35:10;5.78;;;3.28;;
11034;SDS011;5571;48.110;-1.706;2022-08-18T14:37:37;4.75;;;3.60;;
11034;SDS011;5571;48.110;-1.706;2022-08-18T14:40:03;8.95;;;3.20;;
11034;SDS011;5571;48.110;-1.706;2022-08-18T14:42:29;7.28;;;3.20;;
11034;SDS011;5571;48.110;-1.706;2022-08-18T14:44:55;6.03;;;3.38;;
11034;SDS011;5571;48.110;-1.706;2022-08-18T14:47:22;5.53;;;3.28;;
11034;SDS011;5571;48.110;-1.706;2022-08-18T14:49:51;5.15;;;2.80;;
11034;SDS011;5571;48.110;-1.706;2022-08-18T14:52:16;4.53;;;3.47;;
11034;SDS011;5571;48.110;-1.706;2022-08-18T14:54:41;6.00;;;3.55;;
11034;SDS011;5571;48.110;-1.706;2022-08-18T14:57:07;5.40;;;3.70;;
11034;SDS011;5571;48.110;-1.706;2022-08-18T14:59:36;7.38;;;3.20;;
11034;SDS011;5571;48.110;-1.706;2022-08-18T15:02:02;4.25;;;2.72;;
11034;SDS011;5571;48.110;-1.706;2022-08-18T15:04:28;5.63;;;3.47;;
11034;SDS011;5571;48.110;-1.706;2022-08-18T15:06:54;4.85;;;3.47;;
11034;SDS011;5571;48.110;-1.706;2022-08-18T15:09:19;6.18;;;3.38;;
11034;SDS011;5571;48.110;-1.706;2022-08-18T15:11:44;4.35;;;3.58;;
11034;SDS011;5571;48.110;-1.706;2022-08-18T15:14:10;4.22;;;3.03;;
11034;SDS011;5571;48.110;-1.706;2022-08-18T15:16:36;9.07;;;3.50;;
11034;SDS011;5571;48.110;-1.706;2022-08-18T15:19:02;5.05;;;3.15;;
11034;SDS011;5571;48.110;-1.706;2022-08-18T15:21:28;5.75;;;3.22;;
11034;SDS011;5571;48.110;-1.706;2022-08-18T15:24:13;5.55;;;3.70;;
11034;SDS011;5571;48.110;-1.706;2022-08-18T15:26:58;6.47;;;3.25;;
11034;SDS011;5571;48.110;-1.706;2022-08-18T15:29:24;5.43;;;3.70;;
11034;SDS011;5571;48.110;-1.706;2022-08-18T15:31:50;4.03;;;3.22;;
11034;SDS011;5571;48.110;-1.706;2022-08-18T15:34:16;6.85;;;3.10;;
11034;SDS011;5571;48.110;-1.706;2022-08-18T15:36:42;4.15;;;3.35;;
11034;SDS011;5571;48.110;-1.706;2022-08-18T15:39:08;5.78;;;3.13;;
11034;SDS011;5571;48.110;-1.706;2022-08-18T15:41:38;3.95;;;3.40;;
11034;SDS011;5571;48.110;-1.706;2022-08-18T15:44:07;6.38;;;3.90;;
11034;SDS011;5571;48.110;-1.706;2022-08-18T15:46:34;6.80;;;3.95;;
11034;SDS011;5571;48.110;-1.706;2022-08-18T15:49:01;6.47;;;3.85;;
11034;SDS011;5571;48.110;-1.706;2022-08-18T15:51:30;8.85;;;3.83;;
11034;SDS011;5571;48.110;-1.706;2022-08-18T15:53:55;7.60;;;4.18;;
11034;SDS011;5571;48.110;-1.706;2022-08-18T15:56:22;9.48;;;3.95;;
11034;SDS011;5571;48.110;-1.706;2022-08-18T15:58:49;6.22;;;3.80;;
11034;SDS011;5571;48.110;-1.706;2022-08-18T16:01:16;9.52;;;4.22;;
11034;SDS011;5571;48.110;-1.706;2022-08-18T16:03:43;7.35;;;4.30;;
11034;SDS011;5571;48.110;-1.706;2022-08-18T16:06:11;7.13;;;3.50;;
11034;SDS011;5571;48.110;-1.706;2022-08-18T16:08:38;10.02;;;3.72;;
11034;SDS011;5571;48.110;-1.706;2022-08-18T16:11:11;5.50;;;3.53;;
11034;SDS011;5571;48.110;-1.706;2022-08-18T16:13:39;10.82;;;3.80;;
11034;SDS011;5571;48.110;-1.706;2022-08-18T16:16:09;9.68;;;3.22;;
11034;SDS011;5571;48.110;-1.706;2022-08-18T16:18:37;8.48;;;4.22;;
11034;SDS011;5571;48.110;-1.706;2022-08-18T16:21:06;9.93;;;4.05;;
11034;SDS011;5571;48.110;-1.706;2022-08-18T16:23:39;8.80;;;3.58;;
11034;SDS011;5571;48.110;-1.706;2022-08-18T16:26:07;5.50;;;3.22;;
11034;SDS011;5571;48.110;-1.706;2022-08-18T16:28:33;6.15;;;3.25;;
11034;SDS011;5571;48.110;-1.706;2022-08-18T16:31:00;5.43;;;3.45;;
11034;SDS011;5571;48.110;-1.706;2022-08-18T16:33:26;4.95;;;3.50;;
11034;SDS011;5571;48.110;-1.706;2022-08-18T16:35:51;6.22;;;3.40;;
11034;SDS011;5571;48.110;-1.706;2022-08-18T16:38:17;5.75;;;3.60;;
11034;SDS011;5571;48.110;-1.706;2022-08-18T16:40:43;6.28;;;3.60;;
11034;SDS011;5571;48.110;-1.706;2022-08-18T16:43:09;10.05;;;3.70;;
11034;SDS011;5571;48.110;-1.706;2022-08-18T16:45:36;6.68;;;3.63;;
11034;SDS011;5571;48.110;-1.706;2022-08-18T16:48:04;7.63;;;3.70;;
11034;SDS011;5571;48.110;-1.706;2022-08-18T16:50:33;7.30;;;3.55;;
11034;SDS011;5571;48.110;-1.706;2022-08-18T16:52:59;6.38;;;3.90;;
11034;SDS011;5571;48.110;-1.706;2022-08-18T16:55:25;11.05;;;3.78;;
11034;SDS011;5571;48.110;-1.706;2022-08-18T16:57:50;6.70;;;3.70;;
11034;SDS011;5571;48.110;-1.706;2022-08-18T17:00:35;10.23;;;3.33;;
11034;SDS011;5571;48.110;-1.706;2022-08-18T17:03:18;8.15;;;3.50;;
11034;SDS011;5571;48.110;-1.706;2022-08-18T17:06:03;4.07;;;3.40;;
11034;SDS011;5571;48.110;-1.706;2022-08-18T17:08:31;5.53;;;3.22;;
11034;SDS011;5571;48.110;-1.706;2022-08-18T17:10:58;7.88;;;3.20;;
11034;SDS011;5571;48.110;-1.706;2022-08-18T17:13:25;6.10;;;3.40;;
11034;SDS011;5571;48.110;-1.706;2022-08-18T17:15:50;7.63;;;3.33;;
11034;SDS011;5571;48.110;-1.706;2022-08-18T17:18:16;7.38;;;3.35;;
11034;SDS011;5571;48.110;-1.706;2022-08-18T17:20:41;5.95;;;3.53;;
11034;SDS011;5571;48.110;-1.706;2022-08-18T17:23:07;3.83;;;3.40;;
11034;SDS011;5571;48.110;-1.706;2022-08-18T17:25:32;6.03;;;3.10;;
11034;SDS011;5571;48.110;-1.706;2022-08-18T17:27:59;3.30;;;2.95;;
11034;SDS011;5571;48.110;-1.706;2022-08-18T17:30:26;5.70;;;3.03;;
11034;SDS011;5571;48.110;-1.706;2022-08-18T17:33:04;6.15;;;3.10;;
11034;SDS011;5571;48.110;-1.706;2022-08-18T17:35:38;4.88;;;3.08;;
11034;SDS011;5571;48.110;-1.706;2022-08-18T17:38:13;5.32;;;2.92;;
11034;SDS011;5571;48.110;-1.706;2022-08-18T17:40:43;3.42;;;2.88;;
11034;SDS011;5571;48.110;-1.706;2022-08-18T17:43:15;8.30;;;2.92;;
11034;SDS011;5571;48.110;-1.706;2022-08-18T17:45:47;5.75;;;2.88;;
11034;SDS011;5571;48.110;-1.706;2022-08-18T17:48:22;4.15;;;2.75;;
11034;SDS011;5571;48.110;-1.706;2022-08-18T17:51:02;3.88;;;2.50;;
11034;SDS011;5571;48.110;-1.706;2022-08-18T17:53:52;4.00;;;2.80;;